sensor_id;sensor_type;location;lat;lon;timestamp;pressure;altitude;pressure_sealevel;temperature;humidity
34696;BME280;20918;51.138;17.370;2022-08-19T00:01:38;99501.84;;;23.36;59.64
34696;BME280;20918;51.138;17.370;2022-08-19T00:05:00;99501.55;;;23.27;59.84
34696;BME280;20918;51.138;17.370;2022-08-19T00:08:02;99507.22;;;23.21;59.95
34696;BME280;20918;51.138;17.370;2022-08-19T00:11:04;99506.64;;;23.16;60.03
34696;BME280;20918;51.138;17.370;2022-08-19T00:14:07;99503.39;;;23.12;60.18
34696;BME280;20918;51.138;17.370;2022-08-19T00:17:10;99500.12;;;23.07;60.35
34696;BME280;20918;51.138;17.370;2022-08-19T00:20:14;99499.55;;;23.02;60.59
34696;BME280;20918;51.138;17.370;2022-08-19T00:23:19;99493.30;;;22.97;60.74
34696;BME280;20918;51.138;17.370;2022-08-19T00:26:20;99487.00;;;22.89;61.00
34696;BME280;20918;51.138;17.370;2022-08-19T00:29:22;99482.93;;;22.81;61.04
34696;BME280;20918;51.138;17.370;2022-08-19T00:32:25;99478.30;;;22.76;61.23
34696;BME280;20918;51.138;17.370;2022-08-19T00:35:26;99469.33;;;22.68;61.47
34696;BME280;20918;51.138;17.370;2022-08-19T00:38:28;99479.84;;;22.62;61.42
34696;BME280;20918;51.138;17.370;2022-08-19T00:41:29;99471.43;;;22.56;61.49
34696;BME280;20918;51.138;17.370;2022-08-19T00:44:30;99460.58;;;22.51;61.67
34696;BME280;20918;51.138;17.370;2022-08-19T00:47:32;99451.63;;;22.45;61.74
34696;BME280;20918;51.138;17.370;2022-08-19T00:50:34;99445.11;;;22.38;61.89
34696;BME280;20918;51.138;17.370;2022-08-19T00:53:35;99449.12;;;22.33;62.04
34696;BME280;20918;51.138;17.370;2022-08-19T00:56:37;99447.75;;;22.31;62.19
34696;BME280;20918;51.138;17.370;2022-08-19T00:59:39;99447.47;;;22.27;62.23
34696;BME280;20918;51.138;17.370;2022-08-19T01:02:45;99445.26;;;22.24;62.22
34696;BME280;20918;51.138;17.370;2022-08-19T01:05:49;99440.11;;;22.20;62.30
34696;BME280;20918;51.138;17.370;2022-08-19T01:08:51;99425.47;;;22.16;62.44
34696;BME280;20918;51.138;17.370;2022-08-19T01:11:52;99434.89;;;22.11;62.51
34696;BME280;20918;51.138;17.370;2022-08-19T01:14:54;99441.91;;;22.12;62.53
34696;BME280;20918;51.138;17.370;2022-08-19T01:17:57;99434.33;;;22.09;62.60
34696;BME280;20918;51.138;17.370;2022-08-19T01:21:17;99429.70;;;22.07;62.69
34696;BME280;20918;51.138;17.370;2022-08-19T01:24:24;99421.07;;;22.05;62.78
34696;BME280;20918;51.138;17.370;2022-08-19T01:27:26;99423.99;;;22.01;62.94
34696;BME280;20918;51.138;17.370;2022-08-19T01:30:31;99414.25;;;21.97;63.01
34696;BME280;20918;51.138;17.370;2022-08-19T01:33:36;99421.57;;;21.99;63.03
34696;BME280;20918;51.138;17.370;2022-08-19T01:36:40;99427.26;;;22.03;63.15
34696;BME280;20918;51.138;17.370;2022-08-19T01:39:45;99416.68;;;21.99;63.18
34696;BME280;20918;51.138;17.370;2022-08-19T01:42:48;99414.25;;;21.97;63.52
34696;BME280;20918;51.138;17.370;2022-08-19T01:45:50;99415.30;;;21.96;63.68
34696;BME280;20918;51.138;17.370;2022-08-19T01:48:51;99410.92;;;21.87;63.76
34696;BME280;20918;51.138;17.370;2022-08-19T01:51:52;99397.38;;;21.80;64.00
34696;BME280;20918;51.138;17.370;2022-08-19T01:54:54;99388.16;;;21.76;64.03
34696;BME280;20918;51.138;17.370;2022-08-19T01:57:58;99388.38;;;21.69;64.17
34696;BME280;20918;51.138;17.370;2022-08-19T02:01:01;99394.00;;;21.65;64.31
34696;BME280;20918;51.138;17.370;2022-08-19T02:04:04;99392.38;;;21.64;64.52
34696;BME280;20918;51.138;17.370;2022-08-19T02:07:07;99390.73;;;21.60;64.62
34696;BME280;20918;51.138;17.370;2022-08-19T02:10:12;99384.20;;;21.56;64.92
34696;BME280;20918;51.138;17.370;2022-08-19T02:13:15;99373.37;;;21.48;65.32
34696;BME280;20918;51.138;17.370;2022-08-19T02:16:18;99376.84;;;21.46;65.50
34696;BME280;20918;51.138;17.370;2022-08-19T02:19:19;99377.36;;;21.43;65.90
34696;BME280;20918;51.138;17.370;2022-08-19T02:22:21;99382.46;;;21.42;65.98
34696;BME280;20918;51.138;17.370;2022-08-19T02:25:22;99372.20;;;21.42;66.12
34696;BME280;20918;51.138;17.370;2022-08-19T02:28:23;99378.41;;;21.42;66.29
34696;BME280;20918;51.138;17.370;2022-08-19T02:31:24;99370.05;;;21.41;66.30
34696;BME280;20918;51.138;17.370;2022-08-19T02:34:26;99366.52;;;21.38;66.36
34696;BME280;20918;51.138;17.370;2022-08-19T02:37:27;99361.61;;;21.35;66.58
34696;BME280;20918;51.138;17.370;2022-08-19T02:40:52;99359.14;;;21.34;66.43
34696;BME280;20918;51.138;17.370;2022-08-19T02:43:56;99369.67;;;21.33;66.68
34696;BME280;20918;51.138;17.370;2022-08-19T02:46:58;99365.30;;;21.26;67.01
34696;BME280;20918;51.138;17.370;2022-08-19T02:50:01;99356.61;;;21.22;66.87
34696;BME280;20918;51.138;17.370;2022-08-19T02:53:03;99350.38;;;21.19;67.12
34696;BME280;20918;51.138;17.370;2022-08-19T02:56:06;99350.33;;;21.14;67.38
34696;BME280;20918;51.138;17.370;2022-08-19T02:59:08;99355.66;;;21.09;67.34
34696;BME280;20918;51.138;17.370;2022-08-19T03:02:10;99361.84;;;21.04;67.37
34696;BME280;20918;51.138;17.370;2022-08-19T03:05:11;99368.55;;;21.01;67.48
34696;BME280;20918;51.138;17.370;2022-08-19T03:08:12;99365.80;;;20.96;67.59
34696;BME280;20918;51.138;17.370;2022-08-19T03:11:20;99363.37;;;20.95;67.75
34696;BME280;20918;51.138;17.370;2022-08-19T03:14:22;99362.20;;;20.88;67.89
34696;BME280;20918;51.138;17.370;2022-08-19T03:17:23;99351.31;;;20.78;68.08
34696;BME280;20918;51.138;17.370;2022-08-19T03:20:24;99346.37;;;20.70;68.28
34696;BME280;20918;51.138;17.370;2022-08-19T03:23:26;99352.47;;;20.63;68.57
34696;BME280;20918;51.138;17.370;2022-08-19T03:26:27;99362.91;;;20.56;68.76
34696;BME280;20918;51.138;17.370;2022-08-19T03:29:30;99390.63;;;20.54;68.86
34696;BME280;20918;51.138;17.370;2022-08-19T03:32:32;99387.59;;;20.51;69.06
34696;BME280;20918;51.138;17.370;2022-08-19T03:35:33;99396.42;;;20.46;69.14
34696;BME280;20918;51.138;17.370;2022-08-19T03:38:42;99394.53;;;20.47;69.21
34696;BME280;20918;51.138;17.370;2022-08-19T03:41:48;99404.46;;;20.44;69.22
34696;BME280;20918;51.138;17.370;2022-08-19T03:44:50;99400.95;;;20.43;69.38
34696;BME280;20918;51.138;17.370;2022-08-19T03:47:51;99387.98;;;20.40;69.47
34696;BME280;20918;51.138;17.370;2022-08-19T03:50:52;99382.29;;;20.36;69.60
34696;BME280;20918;51.138;17.370;2022-08-19T03:53:55;99383.33;;;20.33;69.62
34696;BME280;20918;51.138;17.370;2022-08-19T03:56:56;99383.06;;;20.34;69.66
34696;BME280;20918;51.138;17.370;2022-08-19T03:59:58;99387.67;;;20.36;69.68
34696;BME280;20918;51.138;17.370;2022-08-19T04:02:59;99395.22;;;20.37;69.75
34696;BME280;20918;51.138;17.370;2022-08-19T04:06:24;99393.11;;;20.39;69.69
34696;BME280;20918;51.138;17.370;2022-08-19T04:09:22;99400.11;;;20.40;69.73
34696;BME280;20918;51.138;17.370;2022-08-19T04:12:24;99404.73;;;20.42;69.75
34696;BME280;20918;51.138;17.370;2022-08-19T04:15:25;99412.23;;;20.40;69.82
34696;BME280;20918;51.138;17.370;2022-08-19T04:18:26;99416.59;;;20.44;69.91
34696;BME280;20918;51.138;17.370;2022-08-19T04:21:29;99415.45;;;20.56;70.02
34696;BME280;20918;51.138;17.370;2022-08-19T04:24:30;99406.75;;;20.71;69.96
34696;BME280;20918;51.138;17.370;2022-08-19T04:27:32;99418.58;;;20.90;69.91
34696;BME280;20918;51.138;17.370;2022-08-19T04:30:40;99423.39;;;21.10;69.83
34696;BME280;20918;51.138;17.370;2022-08-19T04:33:43;99427.89;;;21.28;69.76
34696;BME280;20918;51.138;17.370;2022-08-19T04:36:44;99431.14;;;21.53;69.64
34696;BME280;20918;51.138;17.370;2022-08-19T04:39:45;99420.31;;;21.77;69.38
34696;BME280;20918;51.138;17.370;2022-08-19T04:43:05;99425.39;;;22.06;69.30
34696;BME280;20918;51.138;17.370;2022-08-19T04:46:10;99431.30;;;22.37;69.03
34696;BME280;20918;51.138;17.370;2022-08-19T04:49:13;99430.13;;;22.68;68.60
34696;BME280;20918;51.138;17.370;2022-08-19T04:52:15;99425.14;;;23.00;68.05
34696;BME280;20918;51.138;17.370;2022-08-19T04:55:16;99427.13;;;23.33;67.35
34696;BME280;20918;51.138;17.370;2022-08-19T04:58:18;99424.75;;;23.57;66.66
34696;BME280;20918;51.138;17.370;2022-08-19T05:01:22;99422.34;;;23.76;66.05
34696;BME280;20918;51.138;17.370;2022-08-19T05:04:26;99430.19;;;23.87;65.52
34696;BME280;20918;51.138;17.370;2022-08-19T05:07:29;99419.09;;;23.84;65.15
34696;BME280;20918;51.138;17.370;2022-08-19T05:10:31;99405.30;;;23.88;64.92
34696;BME280;20918;51.138;17.370;2022-08-19T05:13:32;99392.27;;;24.00;64.70
34696;BME280;20918;51.138;17.370;2022-08-19T05:16:33;99390.63;;;24.12;64.69
34696;BME280;20918;51.138;17.370;2022-08-19T05:19:34;99391.67;;;24.29;64.26
34696;BME280;20918;51.138;17.370;2022-08-19T05:22:53;99399.26;;;24.27;63.62
34696;BME280;20918;51.138;17.370;2022-08-19T05:25:54;99402.81;;;24.20;63.71
34696;BME280;20918;51.138;17.370;2022-08-19T05:28:55;99409.59;;;24.25;63.68
34696;BME280;20918;51.138;17.370;2022-08-19T05:31:57;99404.11;;;24.40;63.25
34696;BME280;20918;51.138;17.370;2022-08-19T05:35:00;99409.80;;;24.51;63.18
34696;BME280;20918;51.138;17.370;2022-08-19T05:38:01;99411.12;;;24.67;62.88
34696;BME280;20918;51.138;17.370;2022-08-19T05:41:09;99410.80;;;24.81;62.55
34696;BME280;20918;51.138;17.370;2022-08-19T05:44:11;99415.03;;;25.00;62.25
34696;BME280;20918;51.138;17.370;2022-08-19T05:47:13;99417.96;;;25.11;61.63
34696;BME280;20918;51.138;17.370;2022-08-19T05:50:15;99422.05;;;25.16;61.54
34696;BME280;20918;51.138;17.370;2022-08-19T05:53:18;99414.91;;;25.28;61.29
34696;BME280;20918;51.138;17.370;2022-08-19T05:56:20;99418.69;;;25.35;60.88
34696;BME280;20918;51.138;17.370;2022-08-19T05:59:21;99423.59;;;25.30;60.70
34696;BME280;20918;51.138;17.370;2022-08-19T06:02:22;99421.75;;;25.23;60.76
34696;BME280;20918;51.138;17.370;2022-08-19T06:05:23;99408.42;;;25.26;60.87
34696;BME280;20918;51.138;17.370;2022-08-19T06:08:29;99409.39;;;25.46;60.96
34696;BME280;20918;51.138;17.370;2022-08-19T06:14:40;99420.06;;;25.71;60.33
34696;BME280;20918;51.138;17.370;2022-08-19T06:17:42;99406.09;;;25.88;59.75
34696;BME280;20918;51.138;17.370;2022-08-19T06:20:44;99409.92;;;25.82;59.91
34696;BME280;20918;51.138;17.370;2022-08-19T06:23:47;99434.77;;;26.05;59.62
34696;BME280;20918;51.138;17.370;2022-08-19T06:26:49;99446.39;;;26.13;59.41
34696;BME280;20918;51.138;17.370;2022-08-19T06:29:51;99449.56;;;26.20;58.76
34696;BME280;20918;51.138;17.370;2022-08-19T06:32:53;99455.83;;;26.18;58.85
34696;BME280;20918;51.138;17.370;2022-08-19T06:35:54;99464.77;;;26.21;58.24
34696;BME280;20918;51.138;17.370;2022-08-19T06:38:55;99458.14;;;26.32;58.27
34696;BME280;20918;51.138;17.370;2022-08-19T06:42:01;99459.27;;;26.58;58.35
34696;BME280;20918;51.138;17.370;2022-08-19T06:45:06;99466.20;;;26.96;58.25
34696;BME280;20918;51.138;17.370;2022-08-19T06:48:08;99475.92;;;27.26;57.47
34696;BME280;20918;51.138;17.370;2022-08-19T06:51:09;99479.72;;;27.46;57.06
34696;BME280;20918;51.138;17.370;2022-08-19T06:54:11;99482.98;;;27.65;56.07
34696;BME280;20918;51.138;17.370;2022-08-19T06:57:12;99494.58;;;27.73;56.28
34696;BME280;20918;51.138;17.370;2022-08-19T07:00:15;99507.58;;;27.81;55.73
34696;BME280;20918;51.138;17.370;2022-08-19T07:03:16;99515.13;;;27.87;55.99
34696;BME280;20918;51.138;17.370;2022-08-19T07:06:18;99517.98;;;27.96;55.49
34696;BME280;20918;51.138;17.370;2022-08-19T07:09:20;99516.95;;;28.10;54.58
34696;BME280;20918;51.138;17.370;2022-08-19T07:12:22;99518.77;;;28.15;54.29
34696;BME280;20918;51.138;17.370;2022-08-19T07:15:23;99519.29;;;28.17;54.07
34696;BME280;20918;51.138;17.370;2022-08-19T07:18:24;99512.39;;;28.38;53.06
34696;BME280;20918;51.138;17.370;2022-08-19T07:21:28;99517.08;;;28.52;54.02
34696;BME280;20918;51.138;17.370;2022-08-19T07:24:30;99511.75;;;29.04;53.72
34696;BME280;20918;51.138;17.370;2022-08-19T07:27:33;99510.00;;;29.22;52.20
34696;BME280;20918;51.138;17.370;2022-08-19T07:30:36;99525.15;;;29.42;52.14
34696;BME280;20918;51.138;17.370;2022-08-19T07:33:39;99529.20;;;29.45;50.75
34696;BME280;20918;51.138;17.370;2022-08-19T07:36:44;99528.69;;;29.57;51.09
34696;BME280;20918;51.138;17.370;2022-08-19T07:39:46;99524.45;;;29.62;49.50
34696;BME280;20918;51.138;17.370;2022-08-19T07:42:49;99526.22;;;29.94;50.32
34696;BME280;20918;51.138;17.370;2022-08-19T07:45:52;99536.54;;;30.53;50.16
34696;BME280;20918;51.138;17.370;2022-08-19T07:48:58;99536.84;;;31.14;49.58
34696;BME280;20918;51.138;17.370;2022-08-19T07:52:04;99540.17;;;31.51;48.14
34696;BME280;20918;51.138;17.370;2022-08-19T07:55:08;99550.82;;;31.87;48.57
34696;BME280;20918;51.138;17.370;2022-08-19T07:58:16;99548.89;;;32.31;47.19
34696;BME280;20918;51.138;17.370;2022-08-19T08:01:22;99536.98;;;32.59;46.39
34696;BME280;20918;51.138;17.370;2022-08-19T08:04:25;99545.64;;;32.79;46.11
34696;BME280;20918;51.138;17.370;2022-08-19T08:07:47;99547.33;;;33.10;45.46
34696;BME280;20918;51.138;17.370;2022-08-19T08:11:06;99545.66;;;33.32;43.37
34696;BME280;20918;51.138;17.370;2022-08-19T08:14:08;99549.22;;;32.47;43.35
34696;BME280;20918;51.138;17.370;2022-08-19T08:17:10;99560.03;;;31.65;43.72
34696;BME280;20918;51.138;17.370;2022-08-19T08:20:13;99559.25;;;31.25;44.86
34696;BME280;20918;51.138;17.370;2022-08-19T08:23:15;99560.69;;;31.22;45.08
34696;BME280;20918;51.138;17.370;2022-08-19T08:26:29;99558.13;;;31.17;44.80
34696;BME280;20918;51.138;17.370;2022-08-19T08:29:30;99564.80;;;31.22;45.18
34696;BME280;20918;51.138;17.370;2022-08-19T08:32:31;99566.50;;;31.21;44.89
34696;BME280;20918;51.138;17.370;2022-08-19T08:35:33;99569.45;;;31.13;45.37
34696;BME280;20918;51.138;17.370;2022-08-19T08:38:34;99567.54;;;31.22;45.24
34696;BME280;20918;51.138;17.370;2022-08-19T08:42:15;99563.78;;;31.49;45.54
34696;BME280;20918;51.138;17.370;2022-08-19T08:45:18;99563.73;;;31.87;45.54
34696;BME280;20918;51.138;17.370;2022-08-19T08:48:27;99571.23;;;32.45;44.38
34696;BME280;20918;51.138;17.370;2022-08-19T08:51:40;99567.94;;;32.86;43.63
34696;BME280;20918;51.138;17.370;2022-08-19T08:54:47;99567.41;;;33.01;42.99
34696;BME280;20918;51.138;17.370;2022-08-19T08:57:53;99558.82;;;32.94;42.39
34696;BME280;20918;51.138;17.370;2022-08-19T09:01:02;99556.45;;;33.08;42.65
34696;BME280;20918;51.138;17.370;2022-08-19T09:04:05;99557.17;;;33.11;42.42
34696;BME280;20918;51.138;17.370;2022-08-19T09:10:51;99547.53;;;33.70;42.27
34696;BME280;20918;51.138;17.370;2022-08-19T09:14:06;99541.33;;;34.09;41.62
34696;BME280;20918;51.138;17.370;2022-08-19T09:17:24;99537.55;;;34.07;41.27
34696;BME280;20918;51.138;17.370;2022-08-19T09:20:34;99526.02;;;33.99;40.79
34696;BME280;20918;51.138;17.370;2022-08-19T09:23:37;99527.06;;;34.28;40.32
34696;BME280;20918;51.138;17.370;2022-08-19T09:26:38;99529.90;;;33.98;40.04
34696;BME280;20918;51.138;17.370;2022-08-19T09:29:39;99528.47;;;34.07;40.54
34696;BME280;20918;51.138;17.370;2022-08-19T09:32:40;99543.87;;;34.53;40.22
34696;BME280;20918;51.138;17.370;2022-08-19T09:35:42;99546.02;;;34.93;39.84
34696;BME280;20918;51.138;17.370;2022-08-19T09:38:44;99548.91;;;35.28;39.37
34696;BME280;20918;51.138;17.370;2022-08-19T09:41:46;99544.09;;;35.37;38.05
34696;BME280;20918;51.138;17.370;2022-08-19T09:44:47;99549.16;;;35.29;37.54
34696;BME280;20918;51.138;17.370;2022-08-19T09:47:50;99539.62;;;35.26;37.62
34696;BME280;20918;51.138;17.370;2022-08-19T09:50:53;99540.67;;;35.09;37.08
34696;BME280;20918;51.138;17.370;2022-08-19T09:53:58;99535.80;;;34.81;37.60
34696;BME280;20918;51.138;17.370;2022-08-19T09:57:02;99528.59;;;35.14;37.25
34696;BME280;20918;51.138;17.370;2022-08-19T10:00:06;99525.61;;;35.31;37.66
34696;BME280;20918;51.138;17.370;2022-08-19T10:03:09;99535.09;;;35.52;36.52
34696;BME280;20918;51.138;17.370;2022-08-19T10:06:12;99528.20;;;35.52;36.34
34696;BME280;20918;51.138;17.370;2022-08-19T10:09:14;99533.87;;;35.37;36.16
34696;BME280;20918;51.138;17.370;2022-08-19T10:12:16;99530.05;;;35.42;36.10
34696;BME280;20918;51.138;17.370;2022-08-19T10:15:18;99534.78;;;35.35;34.73
34696;BME280;20918;51.138;17.370;2022-08-19T10:18:22;99528.67;;;35.05;35.21
34696;BME280;20918;51.138;17.370;2022-08-19T10:21:27;99533.77;;;35.15;34.62
34696;BME280;20918;51.138;17.370;2022-08-19T10:24:30;99537.63;;;34.77;33.78
34696;BME280;20918;51.138;17.370;2022-08-19T10:27:31;99536.13;;;34.55;34.73
34696;BME280;20918;51.138;17.370;2022-08-19T10:30:34;99533.01;;;34.57;35.10
34696;BME280;20918;51.138;17.370;2022-08-19T10:33:36;99534.39;;;34.63;34.43
34696;BME280;20918;51.138;17.370;2022-08-19T10:36:38;99533.73;;;34.72;34.73
34696;BME280;20918;51.138;17.370;2022-08-19T10:39:39;99527.78;;;34.95;34.17
34696;BME280;20918;51.138;17.370;2022-08-19T10:42:40;99524.77;;;35.00;34.61
34696;BME280;20918;51.138;17.370;2022-08-19T10:45:41;99521.37;;;35.09;35.15
34696;BME280;20918;51.138;17.370;2022-08-19T10:48:43;99519.88;;;35.12;33.31
34696;BME280;20918;51.138;17.370;2022-08-19T10:51:44;99523.88;;;34.84;33.24
34696;BME280;20918;51.138;17.370;2022-08-19T10:55:06;99515.94;;;34.70;33.58
34696;BME280;20918;51.138;17.370;2022-08-19T10:58:26;99515.83;;;34.78;33.99
34696;BME280;20918;51.138;17.370;2022-08-19T11:01:28;99519.05;;;34.93;32.79
34696;BME280;20918;51.138;17.370;2022-08-19T11:04:31;99521.09;;;34.77;34.64
34696;BME280;20918;51.138;17.370;2022-08-19T11:07:33;99518.47;;;34.87;34.73
34696;BME280;20918;51.138;17.370;2022-08-19T11:10:34;99515.36;;;34.83;33.88
34696;BME280;20918;51.138;17.370;2022-08-19T11:13:39;99511.91;;;34.61;33.50
34696;BME280;20918;51.138;17.370;2022-08-19T11:16:42;99510.94;;;34.51;34.28
34696;BME280;20918;51.138;17.370;2022-08-19T11:19:43;99523.37;;;34.57;34.29
34696;BME280;20918;51.138;17.370;2022-08-19T11:22:44;99516.27;;;34.74;33.65
34696;BME280;20918;51.138;17.370;2022-08-19T11:25:46;99516.97;;;34.96;33.44
34696;BME280;20918;51.138;17.370;2022-08-19T11:28:48;99508.72;;;34.84;32.54
34696;BME280;20918;51.138;17.370;2022-08-19T11:31:51;99504.23;;;34.67;32.64
34696;BME280;20918;51.138;17.370;2022-08-19T11:34:53;99515.00;;;34.59;33.47
34696;BME280;20918;51.138;17.370;2022-08-19T11:37:55;99518.33;;;34.65;33.62
34696;BME280;20918;51.138;17.370;2022-08-19T11:41:00;99513.05;;;34.66;32.42
34696;BME280;20918;51.138;17.370;2022-08-19T11:44:03;99511.98;;;34.52;31.61
34696;BME280;20918;51.138;17.370;2022-08-19T11:47:05;99509.95;;;34.22;32.11
34696;BME280;20918;51.138;17.370;2022-08-19T11:50:07;99521.20;;;33.96;32.86
34696;BME280;20918;51.138;17.370;2022-08-19T11:53:10;99524.20;;;33.76;33.39
34696;BME280;20918;51.138;17.370;2022-08-19T11:56:12;99534.29;;;33.57;33.64
34696;BME280;20918;51.138;17.370;2022-08-19T11:59:14;99538.19;;;33.47;34.28
34696;BME280;20918;51.138;17.370;2022-08-19T12:02:16;99541.30;;;33.46;34.13
34696;BME280;20918;51.138;17.370;2022-08-19T12:05:17;99537.30;;;33.49;34.79
34696;BME280;20918;51.138;17.370;2022-08-19T12:08:19;99536.93;;;33.81;35.05
34696;BME280;20918;51.138;17.370;2022-08-19T12:11:21;99534.91;;;34.05;35.36
34696;BME280;20918;51.138;17.370;2022-08-19T12:14:23;99535.34;;;34.34;34.87
34696;BME280;20918;51.138;17.370;2022-08-19T12:17:26;99531.38;;;34.50;34.87
34696;BME280;20918;51.138;17.370;2022-08-19T12:20:27;99524.64;;;34.72;35.24
34696;BME280;20918;51.138;17.370;2022-08-19T12:23:28;99517.67;;;34.87;34.39
34696;BME280;20918;51.138;17.370;2022-08-19T12:26:30;99516.76;;;34.95;33.31
34696;BME280;20918;51.138;17.370;2022-08-19T12:29:32;99515.38;;;35.01;33.91
34696;BME280;20918;51.138;17.370;2022-08-19T12:32:34;99507.45;;;35.06;34.08
34696;BME280;20918;51.138;17.370;2022-08-19T12:35:42;99508.03;;;35.11;34.32
34696;BME280;20918;51.138;17.370;2022-08-19T12:38:46;99515.63;;;35.14;34.17
34696;BME280;20918;51.138;17.370;2022-08-19T12:41:48;99517.23;;;35.15;34.03
34696;BME280;20918;51.138;17.370;2022-08-19T12:44:49;99516.52;;;35.24;33.97
34696;BME280;20918;51.138;17.370;2022-08-19T12:47:52;99523.40;;;35.43;34.01
34696;BME280;20918;51.138;17.370;2022-08-19T12:50:53;99518.47;;;35.42;33.38
34696;BME280;20918;51.138;17.370;2022-08-19T12:53:54;99521.20;;;35.36;33.47
34696;BME280;20918;51.138;17.370;2022-08-19T12:56:57;99526.51;;;35.35;33.09
34696;BME280;20918;51.138;17.370;2022-08-19T13:00:12;99526.16;;;35.31;33.13
34696;BME280;20918;51.138;17.370;2022-08-19T13:03:12;99523.52;;;35.28;33.12
34696;BME280;20918;51.138;17.370;2022-08-19T13:06:14;99524.78;;;35.31;33.26
34696;BME280;20918;51.138;17.370;2022-08-19T13:09:16;99524.44;;;35.38;33.36
34696;BME280;20918;51.138;17.370;2022-08-19T13:12:17;99529.37;;;35.33;33.53
34696;BME280;20918;51.138;17.370;2022-08-19T13:15:21;99517.11;;;35.18;33.79
34696;BME280;20918;51.138;17.370;2022-08-19T13:18:23;99514.25;;;35.14;33.52
34696;BME280;20918;51.138;17.370;2022-08-19T13:21:26;99511.61;;;35.12;33.65
34696;BME280;20918;51.138;17.370;2022-08-19T13:24:30;99507.45;;;35.06;33.52
34696;BME280;20918;51.138;17.370;2022-08-19T13:27:32;99511.25;;;34.95;33.36
34696;BME280;20918;51.138;17.370;2022-08-19T13:30:34;99505.48;;;35.00;33.60
34696;BME280;20918;51.138;17.370;2022-08-19T13:33:53;99506.86;;;34.94;34.15
34696;BME280;20918;51.138;17.370;2022-08-19T13:36:55;99511.69;;;34.91;34.15
34696;BME280;20918;51.138;17.370;2022-08-19T13:39:56;99513.06;;;34.91;34.73
34696;BME280;20918;51.138;17.370;2022-08-19T13:43:00;99510.20;;;34.93;34.38
34696;BME280;20918;51.138;17.370;2022-08-19T13:46:07;99506.53;;;34.89;34.36
34696;BME280;20918;51.138;17.370;2022-08-19T13:49:08;99512.16;;;34.80;34.50
34696;BME280;20918;51.138;17.370;2022-08-19T13:52:10;99520.65;;;34.69;35.00
34696;BME280;20918;51.138;17.370;2022-08-19T13:55:11;99514.31;;;34.63;35.83
34696;BME280;20918;51.138;17.370;2022-08-19T13:58:13;99513.21;;;34.43;36.64
34696;BME280;20918;51.138;17.370;2022-08-19T14:01:21;99516.38;;;34.26;37.23
34696;BME280;20918;51.138;17.370;2022-08-19T14:04:23;99514.28;;;34.11;36.91
34696;BME280;20918;51.138;17.370;2022-08-19T14:07:24;99518.56;;;34.00;36.32
34696;BME280;20918;51.138;17.370;2022-08-19T14:10:26;99512.77;;;33.86;35.68
34696;BME280;20918;51.138;17.370;2022-08-19T14:13:28;99516.75;;;33.77;35.41
34696;BME280;20918;51.138;17.370;2022-08-19T14:16:29;99511.25;;;33.77;36.41
34696;BME280;20918;51.138;17.370;2022-08-19T14:19:31;99516.34;;;33.66;36.66
34696;BME280;20918;51.138;17.370;2022-08-19T14:22:32;99512.29;;;33.57;37.17
34696;BME280;20918;51.138;17.370;2022-08-19T14:25:34;99509.56;;;33.63;37.44
34696;BME280;20918;51.138;17.370;2022-08-19T14:28:36;99511.98;;;33.50;38.13
34696;BME280;20918;51.138;17.370;2022-08-19T14:31:40;99513.55;;;33.45;37.90
34696;BME280;20918;51.138;17.370;2022-08-19T14:34:42;99504.46;;;33.38;38.05
34696;BME280;20918;51.138;17.370;2022-08-19T14:37:45;99496.81;;;33.23;37.37
34696;BME280;20918;51.138;17.370;2022-08-19T14:40:46;99498.52;;;33.07;37.27
34696;BME280;20918;51.138;17.370;2022-08-19T14:43:51;99505.73;;;32.96;37.11
34696;BME280;20918;51.138;17.370;2022-08-19T14:46:52;99495.22;;;32.98;37.63
34696;BME280;20918;51.138;17.370;2022-08-19T14:49:54;99500.51;;;32.89;37.65
34696;BME280;20918;51.138;17.370;2022-08-19T14:53:01;99497.14;;;32.83;38.16
34696;BME280;20918;51.138;17.370;2022-08-19T14:56:14;99492.03;;;32.73;37.95
34696;BME280;20918;51.138;17.370;2022-08-19T14:59:17;99494.91;;;32.62;38.52
34696;BME280;20918;51.138;17.370;2022-08-19T15:02:18;99487.33;;;32.58;39.83
34696;BME280;20918;51.138;17.370;2022-08-19T15:05:21;99493.31;;;32.52;39.44
34696;BME280;20918;51.138;17.370;2022-08-19T15:08:22;99490.77;;;32.47;39.46
34696;BME280;20918;51.138;17.370;2022-08-19T15:11:26;99490.34;;;32.42;39.59
34696;BME280;20918;51.138;17.370;2022-08-19T15:14:28;99484.80;;;32.36;40.12
34696;BME280;20918;51.138;17.370;2022-08-19T15:17:31;99486.33;;;32.31;40.37
34696;BME280;20918;51.138;17.370;2022-08-19T15:20:32;99490.70;;;32.23;40.12
34696;BME280;20918;51.138;17.370;2022-08-19T15:23:33;99489.78;;;32.10;40.66
34696;BME280;20918;51.138;17.370;2022-08-19T15:26:36;99493.42;;;32.00;41.09
34696;BME280;20918;51.138;17.370;2022-08-19T15:29:37;99487.11;;;31.90;40.94
34696;BME280;20918;51.138;17.370;2022-08-19T15:32:38;99485.64;;;31.84;40.84
34696;BME280;20918;51.138;17.370;2022-08-19T15:35:41;99490.75;;;31.80;40.97
34696;BME280;20918;51.138;17.370;2022-08-19T15:53:10;99493.66;;;31.92;40.73
34696;BME280;20918;51.138;17.370;2022-08-19T15:56:11;99496.23;;;31.62;41.01
34696;BME280;20918;51.138;17.370;2022-08-19T15:59:12;99501.22;;;31.43;41.06
34696;BME280;20918;51.138;17.370;2022-08-19T16:02:32;99498.66;;;31.26;41.36
34696;BME280;20918;51.138;17.370;2022-08-19T16:05:53;99504.20;;;31.15;41.92
34696;BME280;20918;51.138;17.370;2022-08-19T16:09:14;99498.84;;;31.01;42.52
34696;BME280;20918;51.138;17.370;2022-08-19T16:12:16;99511.48;;;30.80;42.23
34696;BME280;20918;51.138;17.370;2022-08-19T16:15:18;99510.77;;;30.54;42.56
34696;BME280;20918;51.138;17.370;2022-08-19T16:18:20;99515.86;;;30.38;42.88
34696;BME280;20918;51.138;17.370;2022-08-19T16:21:23;99520.27;;;30.26;43.19